ADDS METAR Data INFO
IDs: Format: Raw Decoded Include TAF

Data at: 0803 UTC 24 May 2018

KPRX 240756Z AUTO 15003KT 7SM CLR 20/19 A3006 RMK AO2 SLP187 T02000189
KPRX 240656Z AUTO 13005KT 10SM FEW060 21/19 A3008 RMK AO2 SLP193 T02060189
KPRX 240556Z AUTO 13007KT 10SM CLR 22/19 A3009 RMK AO2 SLP194 6//// T02170194 10267 20211 403280194 50010
KPRX 240456Z AUTO 13006KT 10SM CLR 22/19 A3010 RMK AO2 SLP200 T02170189
KPRX 240356Z AUTO 11009KT 10SM CLR 23/19 A3007 RMK AO2 SLP190 T02280189
KPRX 240256Z AUTO 10SM CLR 23/19 A3006 RMK AO2 SLP185 6//// T02280194 53015
KPRX 240056Z AUTO 14004KT 10SM CLR 25/20 A3001 RMK AO2 LTG DSNT W TSB2359E27 SLP170 T02500200
KPRX 240033Z AUTO 13004KT 10SM CLR 26/19 A3001 RMK AO2 TSB2359E27
KPRX 240005Z AUTO 09003KT 10SM VCTS CLR 26/19 A3002 RMK AO2 LTG DSNT W-NE TSB2359
KPRX 232356Z AUTO 15005KT 10SM FEW050 27/19 A3001 RMK AO2 LTG DSNT ALQDS TSB25E40 SLP171 T02670194 10328 20261 55002
KPRX 232346Z AUTO 17007KT 10SM FEW050 SCT065 27/19 A3001 RMK AO2 LTG DSNT NE AND SE AND NW TSB25E40
KPRX 232331Z AUTO 17011KT 10SM TS BKN050 BKN060 26/18 A3002 RMK AO2 LTG DSNT ALQDS TSB25
KPRX 232256Z AUTO 17006KT 10SM CLR 32/21 A3001 RMK AO2 LTG DSNT ALQDS SLP169 T03170206
KPRX 232156Z AUTO VRB03KT 10SM FEW055 32/20 A3000 RMK AO2 LTG DSNT NW SLP166 T03220200
KPRX 232056Z AUTO 14007KT 10SM SCT048 BKN110 29/22 A3002 RMK AO2 SLP172 T02940217 56017
KPRX 231956Z AUTO 15007KT 10SM BKN043 BKN055 31/21 A3003 RMK AO2 SLP176 T03060211
KPRX 231856Z AUTO VRB06KT 10SM BKN041 BKN065 31/22 A3005 RMK AO2 SLP180 T03110217
KPRX 231756Z AUTO 16005KT 10SM FEW036 SCT060 30/22 A3007 RMK AO2 SLP189 T03000217 10311 20200 58010
KPRX 231656Z AUTO 00000KT 10SM FEW030 29/22 A3010 RMK AO2 SLP198 T02890217
KPRX 231556Z AUTO 00000KT 10SM CLR 28/22 A3010 RMK AO2 SLP201 T02780217
KPRX 231456Z AUTO 00000KT 10SM CLR 27/22 A3010 RMK AO2 SLP200 T02670217 51018
KPRX 231356Z AUTO 00000KT 10SM CLR 24/21 A3009 RMK AO2 SLP197 T02440211
KPRX 231314Z AUTO 10004KT 9SM FEW002 22/21 A3008 RMK AO2
KPRX 231256Z AUTO 10004KT 10SM CLR 21/20 A3007 RMK AO2 SLP191 T02110200
KPRX 231226Z AUTO 09005KT 10SM FEW002 21/19 A3006 RMK AO2
KPRX 231156Z AUTO 07003KT 10SM CLR 20/19 A3005 RMK AO2 SLP182 T02000189 10211 20194 53013
KPRX 231056Z AUTO 06004KT 10SM CLR 19/19 A3003 RMK AO2 SLP176 T01940189
KPRX 230956Z AUTO 00000KT 10SM CLR 20/19 A3001 RMK AO2 SLP170 T02000194
KPRX 230856Z AUTO 08006KT 10SM CLR 21/19 A3001 RMK AO2 SLP168 T02060194 58003
KPRX 230756Z AUTO 14003KT 10SM CLR 21/19 A3001 RMK AO2 SLP170 T02060194
KPRX 230656Z AUTO 14004KT 10SM CLR 21/19 A3002 RMK AO2 SLP172 T02060194
KPRX 230556Z AUTO 13004KT 10SM CLR 21/19 A3002 RMK AO2 SLP172 T02110194 10289 20211 403110194 50005
KPRX 230456Z AUTO 09006KT 10SM CLR 22/19 A3002 RMK AO2 SLP173 T02170194
KPRX 230256Z AUTO 07008KT 10SM CLR 23/20 A3001 RMK AO2 SLP168 T02280200 53013
KPRX 230156Z AUTO 11008KT 10SM CLR 24/19 A2999 RMK AO2 SLP162 T02440194
KPRX 230056Z AUTO 11005KT 10SM CLR 27/21 A2997 RMK AO2 SLP154 T02720206
KPRX 222356Z AUTO 12006KT 10SM CLR 28/20 A2997 RMK AO2 SLP154 T02830200 10311 20283 55000
KPRX 222256Z AUTO 12006KT 10SM CLR 29/21 A2996 RMK AO2 SLP152 T02940206
KPRX 222156Z AUTO 12008KT 10SM CLR 29/20 A2995 RMK AO2 LTG DSNT E SLP150 T02940200
KPRX 222056Z AUTO 15010KT 10SM FEW036 31/22 A2997 RMK AO2 SLP153 T03060222 56020